createdAt,value
2023-03-22T04:52:20.802Z,8.37
2023-03-22T05:08:58.789Z,8.39
2023-03-22T05:13:11.719Z,8.47
2023-03-22T05:21:18.970Z,8.34
2023-03-22T06:56:18.528Z,9.12
2023-03-22T07:00:19.394Z,9.42
2023-03-22T07:04:19.495Z,9.65
2023-03-22T07:08:19.320Z,9.81
2023-03-22T07:12:19.325Z,9.98
2023-03-22T07:16:20.018Z,10.18
2023-03-22T07:20:19.529Z,10.35
2023-03-22T07:24:19.804Z,10.62
2023-03-22T07:28:18.826Z,10.27
2023-03-22T07:32:18.899Z,10.68
2023-03-22T07:36:18.863Z,10.81
2023-03-22T07:40:19.528Z,11.00
2023-03-22T07:44:19.941Z,10.97
2023-03-22T08:05:37.168Z,11.24
2023-03-22T08:13:56.079Z,11.54
2023-03-22T08:17:57.034Z,11.58
2023-03-22T08:21:56.217Z,11.79
2023-03-22T08:25:56.157Z,11.88
2023-03-22T08:29:55.731Z,12.06
2023-03-22T08:33:56.125Z,12.17
2023-03-22T08:37:56.063Z,12.27
2023-03-22T08:46:14.908Z,12.56
2023-03-22T09:23:13.466Z,13.40
2023-03-22T09:31:32.609Z,13.96
2023-03-22T09:39:51.895Z,14.35
2023-03-22T09:43:52.448Z,14.61
2023-03-22T09:47:52.203Z,14.88
2023-03-22T09:51:52.124Z,14.92
2023-03-22T10:00:11.859Z,15.20
2023-03-22T10:08:29.937Z,15.49
2023-03-22T10:12:30.005Z,15.69
2023-03-22T10:16:29.597Z,15.89
2023-03-22T10:20:29.483Z,15.95
2023-03-22T10:24:29.031Z,16.12
2023-03-22T10:28:28.480Z,16.00
2023-03-22T10:32:28.513Z,16.26
2023-03-22T10:36:29.047Z,16.47
2023-03-22T10:40:27.985Z,16.47
2023-03-22T10:44:27.763Z,16.82
2023-03-22T10:48:27.179Z,16.83
2023-03-22T10:52:26.968Z,17.01
2023-03-22T10:56:26.487Z,17.21
2023-03-22T11:00:26.582Z,17.20
2023-03-22T11:04:25.515Z,17.35
2023-03-22T11:08:25.842Z,17.49
2023-03-22T11:12:25.063Z,17.27
2023-03-22T11:16:24.615Z,17.44
2023-03-22T11:20:24.144Z,17.53
2023-03-22T11:24:24.046Z,17.88
2023-03-22T11:28:23.482Z,17.97
2023-03-22T11:32:23.710Z,17.85
2023-03-22T11:36:22.957Z,17.93
2023-03-22T11:47:21.009Z,18.06
2023-03-22T11:55:40.015Z,18.30
2023-03-22T11:59:40.602Z,18.33
2023-03-22T12:03:39.930Z,18.69
2023-03-22T12:11:58.221Z,18.93
2023-03-22T12:15:59.050Z,18.99
2023-03-22T12:19:58.522Z,19.04
2023-03-22T12:23:58.405Z,19.00
2023-03-22T12:27:58.474Z,18.94
2023-03-22T12:31:58.657Z,19.07
2023-03-22T12:35:58.686Z,19.03
2023-03-22T12:39:58.604Z,19.06
2023-03-22T12:43:58.594Z,19.13
2023-03-22T12:47:59.083Z,19.09
2023-03-22T12:51:58.487Z,19.09
2023-03-22T12:55:58.505Z,19.16
2023-03-22T12:59:58.641Z,19.31
2023-03-22T13:14:03.104Z,19.17
2023-03-22T13:22:21.048Z,19.54
2023-03-22T13:30:40.289Z,19.84
2023-03-22T14:54:01.574Z,19.73
2023-03-22T15:07:56.203Z,19.72
2023-03-22T15:11:56.728Z,20.06
2023-03-22T15:21:24.610Z,19.73
2023-03-22T15:25:26.384Z,19.98
2023-03-22T15:29:26.345Z,20.05
2023-03-22T15:33:26.973Z,20.08
2023-03-22T15:41:44.403Z,19.97
2023-03-22T15:45:44.969Z,19.96
2023-03-22T15:49:42.845Z,19.93
2023-03-22T16:21:10.594Z,18.87
